createdAt,value
2023-05-02T00:02:06.392Z,14.74
2023-05-02T00:04:34.285Z,14.98
2023-05-02T00:07:01.581Z,14.93
2023-05-02T00:09:29.714Z,14.97
2023-05-02T00:11:58.255Z,15.12
2023-05-02T00:14:26.293Z,15.18
2023-05-02T00:16:54.096Z,14.99
2023-05-02T00:19:21.928Z,15.04
2023-05-02T00:21:50.723Z,15.42
2023-05-02T00:24:21.016Z,15.45
2023-05-02T00:26:48.801Z,15.60
2023-05-02T00:29:16.364Z,15.95
2023-05-02T00:31:44.464Z,16.05
2023-05-02T00:34:12.436Z,15.91
2023-05-02T00:36:40.097Z,16.17
2023-05-02T00:39:07.784Z,16.31
2023-05-02T00:41:35.867Z,16.69
2023-05-02T00:44:03.327Z,16.58
2023-05-02T00:46:31.355Z,16.60
2023-05-02T00:48:59.351Z,16.78
2023-05-02T00:51:27.831Z,16.76
2023-05-02T00:53:55.231Z,17.00
2023-05-02T00:56:22.834Z,17.08
2023-05-02T00:58:50.239Z,17.06
2023-05-02T01:01:21.062Z,16.57
2023-05-02T01:04:09.369Z,16.78
2023-05-02T01:06:56.233Z,16.99
2023-05-02T01:09:27.750Z,16.81
2023-05-02T01:12:13.828Z,16.95
2023-05-02T01:14:42.412Z,17.02
2023-05-02T01:17:15.366Z,17.02
2023-05-02T01:19:51.383Z,16.98
2023-05-02T01:22:19.907Z,17.23
2023-05-02T01:25:00.816Z,17.03
2023-05-02T01:27:29.134Z,17.18
2023-05-02T01:29:57.701Z,17.09
2023-05-02T01:32:25.388Z,17.14
2023-05-02T01:34:52.900Z,17.14
2023-05-02T01:37:20.806Z,17.15
2023-05-02T01:39:48.124Z,17.13
2023-05-02T01:42:15.554Z,17.18
2023-05-02T01:44:44.611Z,17.08
2023-05-02T01:47:11.914Z,17.10
2023-05-02T01:49:39.522Z,17.19
2023-05-02T01:52:08.517Z,17.00
2023-05-02T01:54:35.998Z,17.09
2023-05-02T01:57:05.238Z,16.99
2023-05-02T01:59:34.022Z,16.98
2023-05-02T02:02:02.098Z,16.95
2023-05-02T02:04:30.137Z,16.96
2023-05-02T02:07:04.190Z,16.90
2023-05-02T02:09:32.230Z,16.90
2023-05-02T02:12:06.532Z,16.93
2023-05-02T02:14:35.699Z,16.86
2023-05-02T02:17:06.621Z,16.69
2023-05-02T02:19:35.793Z,16.53
2023-05-02T02:22:03.817Z,16.53
2023-05-02T02:24:31.062Z,16.34
2023-05-02T02:26:59.180Z,16.35
2023-05-02T02:29:28.421Z,16.35
2023-05-02T02:31:55.675Z,16.58
2023-05-02T02:34:23.216Z,16.29
2023-05-02T02:36:53.743Z,16.38
2023-05-02T02:39:40.239Z,16.33
2023-05-02T02:42:33.521Z,16.33
2023-05-02T02:45:15.630Z,16.23
2023-05-02T02:47:51.056Z,16.10
2023-05-02T02:50:37.093Z,15.85
2023-05-02T02:53:09.545Z,16.06
2023-05-02T02:55:46.638Z,16.17
2023-05-02T02:58:21.718Z,15.69
2023-05-02T03:00:49.962Z,15.78
2023-05-02T03:03:17.788Z,15.65
2023-05-02T03:05:45.395Z,15.46
2023-05-02T03:08:13.805Z,15.71
2023-05-02T03:10:41.923Z,15.85
2023-05-02T03:13:13.445Z,15.84
2023-05-02T03:15:54.259Z,15.66
2023-05-02T03:18:22.816Z,15.76
2023-05-02T03:20:51.011Z,15.72
2023-05-02T03:23:19.203Z,15.68
2023-05-02T03:25:53.880Z,15.67
2023-05-02T03:28:22.834Z,15.54
2023-05-02T03:30:51.320Z,15.52
2023-05-02T03:33:25.676Z,15.72
2023-05-02T03:35:55.746Z,15.70
2023-05-02T03:38:23.889Z,15.68
2023-05-02T03:40:51.849Z,15.67
2023-05-02T03:43:19.889Z,15.72
2023-05-02T03:45:48.804Z,15.61
2023-05-02T03:48:17.466Z,15.80
2023-05-02T03:50:45.770Z,15.57
2023-05-02T03:53:16.148Z,15.51
2023-05-02T03:55:44.582Z,15.50
2023-05-02T03:58:13.519Z,15.68
2023-05-02T04:00:42.952Z,15.56
2023-05-02T04:03:12.220Z,15.38
2023-05-02T04:05:45.461Z,15.32
2023-05-02T04:08:15.457Z,15.39
2023-05-02T04:10:43.282Z,15.50
2023-05-02T04:13:19.564Z,15.51
2023-05-02T04:15:58.703Z,15.74
2023-05-02T04:18:35.241Z,15.80
2023-05-02T04:21:04.810Z,16.00
2023-05-02T04:23:33.569Z,16.27
2023-05-02T04:26:02.562Z,16.33
2023-05-02T04:28:31.040Z,16.39
2023-05-02T04:31:07.770Z,16.62
2023-05-02T04:33:39.651Z,16.64
2023-05-02T04:36:14.073Z,16.94
2023-05-02T04:38:43.170Z,17.31
2023-05-02T04:41:11.373Z,16.90
2023-05-02T04:43:40.631Z,17.07
2023-05-02T04:46:09.334Z,17.21
2023-05-02T04:48:43.691Z,17.33
2023-05-02T04:51:19.503Z,17.62
2023-05-02T04:53:52.098Z,17.65
2023-05-02T04:56:20.086Z,17.97
2023-05-02T04:58:51.588Z,18.10
2023-05-02T05:01:19.720Z,17.92
2023-05-02T05:03:49.106Z,18.17
2023-05-02T05:06:24.578Z,18.07
2023-05-02T05:08:54.848Z,18.30
2023-05-02T05:11:23.968Z,18.45
2023-05-02T05:13:52.560Z,18.36
2023-05-02T05:16:21.758Z,18.49
2023-05-02T05:18:50.270Z,18.65
2023-05-02T05:21:22.574Z,18.85
2023-05-02T05:23:53.408Z,18.78
2023-05-02T05:26:29.572Z,18.81
2023-05-02T05:29:00.678Z,18.62
2023-05-02T05:31:30.683Z,18.92
2023-05-02T05:33:59.221Z,18.53
2023-05-02T05:36:28.050Z,19.21
2023-05-02T05:38:55.842Z,19.05
2023-05-02T05:41:30.678Z,18.93
2023-05-02T05:43:59.508Z,18.63
2023-05-02T05:46:28.212Z,19.14
2023-05-02T05:48:57.777Z,19.12
2023-05-02T05:51:27.982Z,18.95
2023-05-02T05:53:59.514Z,18.88
2023-05-02T05:56:30.527Z,18.73
2023-05-02T05:58:58.885Z,18.73
2023-05-02T06:01:29.834Z,19.14
2023-05-02T06:03:59.637Z,18.76
2023-05-02T06:06:31.765Z,18.97
2023-05-02T06:09:00.362Z,19.37
2023-05-02T06:11:28.254Z,18.76
2023-05-02T06:14:13.527Z,18.52
2023-05-02T06:17:16.545Z,19.18
2023-05-02T06:20:26.909Z,18.78
2023-05-02T06:22:55.608Z,19.24
2023-05-02T06:25:39.648Z,19.21
2023-05-02T06:28:12.344Z,19.06
2023-05-02T06:30:46.852Z,19.51
2023-05-02T06:33:15.193Z,19.73
2023-05-02T06:35:43.813Z,19.56
2023-05-02T06:38:16.582Z,19.70
2023-05-02T06:40:52.553Z,19.84
2023-05-02T06:43:21.677Z,19.99
2023-05-02T06:45:53.505Z,19.85
2023-05-02T06:48:22.205Z,19.82
2023-05-02T06:50:52.326Z,20.17
2023-05-02T06:53:26.739Z,19.95
2023-05-02T06:55:54.863Z,19.81
2023-05-02T06:58:23.106Z,19.95
2023-05-02T07:00:55.803Z,20.42
2023-05-02T07:03:24.764Z,20.97
2023-05-02T07:05:59.339Z,20.64
2023-05-02T07:08:30.452Z,20.77
2023-05-02T07:10:58.448Z,20.91
2023-05-02T07:13:26.937Z,21.13
2023-05-02T07:16:01.606Z,21.25
2023-05-02T07:18:31.997Z,21.56
2023-05-02T07:21:24.902Z,21.49
2023-05-02T07:24:05.550Z,21.59
2023-05-02T07:26:56.126Z,21.60
2023-05-02T07:33:57.227Z,22.13
2023-05-02T07:36:41.463Z,21.70
2023-05-02T07:39:24.665Z,21.94
2023-05-02T07:42:11.586Z,21.98
2023-05-02T07:44:53.888Z,22.23
2023-05-02T07:47:36.910Z,22.40
2023-05-02T07:50:31.166Z,22.74
2023-05-02T07:53:14.736Z,22.57
2023-05-02T07:55:57.346Z,22.65
2023-05-02T07:58:52.644Z,22.56
2023-05-02T08:01:33.328Z,22.57
2023-05-02T08:04:19.201Z,22.28
2023-05-02T08:07:15.093Z,22.23
2023-05-02T08:10:00.560Z,22.66
2023-05-02T08:12:52.588Z,22.49
2023-05-02T08:15:34.528Z,22.53
2023-05-02T08:18:17.759Z,22.54
2023-05-02T08:21:13.186Z,22.60
2023-05-02T08:23:52.879Z,22.83
2023-05-02T08:26:45.819Z,22.72
2023-05-02T08:29:26.864Z,22.90
2023-05-02T08:32:18.794Z,23.28
2023-05-02T08:34:59.183Z,23.32
2023-05-02T08:37:50.873Z,22.68
2023-05-02T08:40:40.864Z,23.41
2023-05-02T08:43:24.338Z,23.57
2023-05-02T08:46:11.508Z,23.70
2023-05-02T08:48:59.094Z,23.79
2023-05-02T08:51:51.843Z,23.87
2023-05-02T08:54:37.670Z,24.00
2023-05-02T08:57:21.015Z,23.97
2023-05-02T09:00:16.833Z,24.26
2023-05-02T09:02:58.876Z,24.34
2023-05-02T09:05:55.077Z,24.42
2023-05-02T09:08:37.884Z,24.31
2023-05-02T09:11:34.873Z,23.72
2023-05-02T09:14:18.094Z,24.50
2023-05-02T09:17:13.777Z,24.63
2023-05-02T09:20:01.192Z,24.60
2023-05-02T09:22:54.951Z,24.21
2023-05-02T09:25:39.716Z,24.53
2023-05-02T09:28:21.632Z,24.66
2023-05-02T09:31:22.971Z,24.61
2023-05-02T09:34:08.659Z,24.60
2023-05-02T09:39:46.998Z,24.28
2023-05-02T09:42:34.317Z,23.91
2023-05-02T09:45:27.820Z,24.58
2023-05-02T09:48:08.663Z,24.80
2023-05-02T09:50:51.153Z,25.12
2023-05-02T09:53:34.862Z,25.13
2023-05-02T09:59:14.146Z,24.95
2023-05-02T10:02:10.539Z,24.95
2023-05-02T10:05:03.393Z,25.19
2023-05-02T10:07:47.220Z,25.46
2023-05-02T10:10:46.257Z,25.49
2023-05-02T10:16:26.576Z,25.70
2023-05-02T10:19:13.498Z,25.81
2023-05-02T10:22:06.249Z,25.85
2023-05-02T10:24:56.137Z,26.06
2023-05-02T10:31:50.946Z,26.23
2023-05-02T10:34:41.834Z,26.14
2023-05-02T10:41:35.693Z,26.14
2023-05-02T10:44:39.732Z,25.97
2023-05-02T10:47:33.808Z,26.30
2023-05-02T10:50:43.401Z,26.12
2023-05-02T10:53:27.199Z,26.67
2023-05-02T10:56:25.872Z,27.07
2023-05-02T10:59:33.282Z,26.81
2023-05-02T11:02:31.239Z,26.90
2023-05-02T11:05:15.216Z,26.44
2023-05-02T11:08:17.963Z,25.63
2023-05-02T11:11:00.485Z,25.67
2023-05-02T11:13:50.715Z,25.75
2023-05-02T11:16:59.094Z,25.65
2023-05-02T11:19:44.616Z,25.15
2023-05-02T11:26:23.485Z,25.55
2023-05-02T11:29:31.858Z,25.78
2023-05-02T11:32:14.686Z,25.73
2023-05-02T11:35:10.655Z,25.93
2023-05-02T11:38:00.754Z,26.13
2023-05-02T11:40:58.196Z,26.69
2023-05-02T11:44:03.542Z,26.64
2023-05-02T11:46:49.830Z,26.59
2023-05-02T11:49:38.873Z,26.46
2023-05-02T11:52:22.160Z,26.93
2023-05-02T11:55:14.602Z,26.71
2023-05-02T11:58:08.552Z,26.62
2023-05-02T12:00:52.306Z,26.75
2023-05-02T12:03:38.879Z,26.99
2023-05-02T12:06:34.153Z,26.87
2023-05-02T12:09:17.534Z,26.87
2023-05-02T12:12:10.835Z,26.86
2023-05-02T12:14:54.028Z,27.00
2023-05-02T12:17:52.453Z,27.25
2023-05-02T12:20:33.700Z,27.47
2023-05-02T12:23:01.633Z,27.26
2023-05-02T12:25:30.164Z,26.83
2023-05-02T12:30:54.069Z,27.07
2023-05-02T12:33:48.671Z,26.52
2023-05-02T12:37:23.650Z,26.72
2023-05-02T12:40:17.809Z,26.88
2023-05-02T12:43:11.709Z,26.59
2023-05-02T12:45:57.636Z,26.44
2023-05-02T12:49:01.898Z,26.48
2023-05-02T12:51:59.704Z,26.75
2023-05-02T12:55:00.890Z,26.72
2023-05-02T12:57:44.533Z,26.47
2023-05-02T13:00:47.255Z,26.43
2023-05-02T13:03:29.792Z,25.98
2023-05-02T13:06:15.211Z,26.58
2023-05-02T13:09:08.244Z,26.42
2023-05-02T13:11:49.488Z,26.21
2023-05-02T13:14:40.958Z,26.22
2023-05-02T13:17:28.977Z,25.98
2023-05-02T13:20:10.930Z,25.77
2023-05-02T13:22:54.719Z,25.56
2023-05-02T13:25:51.530Z,25.99
2023-05-02T13:28:46.520Z,26.00
2023-05-02T13:31:32.889Z,26.27
2023-05-02T13:34:18.533Z,26.05
2023-05-02T13:40:14.626Z,26.16
2023-05-02T13:42:43.093Z,26.71
2023-05-02T13:45:32.969Z,26.55
2023-05-02T13:48:52.899Z,26.55
2023-05-02T13:55:18.631Z,26.40
2023-05-02T13:58:01.737Z,26.20
2023-05-02T14:00:58.693Z,25.82
2023-05-02T14:03:55.384Z,25.76
2023-05-02T14:06:40.520Z,25.89
2023-05-02T14:12:10.920Z,26.18
2023-05-02T14:14:50.666Z,25.85
2023-05-02T14:17:46.739Z,26.03
2023-05-02T14:20:35.766Z,26.32
2023-05-02T14:23:31.629Z,25.83
2023-05-02T14:26:12.976Z,26.07
2023-05-02T14:29:08.251Z,25.47
2023-05-02T14:31:55.700Z,25.95
2023-05-02T14:34:39.447Z,25.76
2023-05-02T14:37:24.178Z,25.65
2023-05-02T14:40:08.350Z,25.64
2023-05-02T14:46:32.536Z,25.74
2023-05-02T14:49:27.397Z,26.02
2023-05-02T14:52:10.065Z,25.83
2023-05-02T14:55:08.086Z,25.76
2023-05-02T14:57:59.540Z,25.86
2023-05-02T15:00:46.936Z,26.08
2023-05-02T15:03:33.043Z,26.22
2023-05-02T15:06:16.856Z,25.81
2023-05-02T15:09:13.170Z,25.75
2023-05-02T15:11:58.636Z,26.08
2023-05-02T15:14:44.828Z,26.20
2023-05-02T15:17:28.589Z,25.84
2023-05-02T15:23:07.689Z,25.74
2023-05-02T15:25:52.648Z,25.66
2023-05-02T15:28:41.703Z,25.42
2023-05-02T15:31:26.677Z,25.35
2023-05-02T15:34:25.159Z,25.37
2023-05-02T15:40:58.821Z,25.90
2023-05-02T15:43:53.023Z,25.18
2023-05-02T15:46:47.247Z,24.44
2023-05-02T15:49:33.218Z,24.73
2023-05-02T15:52:25.839Z,24.65
2023-05-02T15:55:12.261Z,24.85
2023-05-02T15:58:10.653Z,24.91
2023-05-02T16:00:57.926Z,24.86
2023-05-02T16:03:51.442Z,24.75
2023-05-02T16:06:31.210Z,24.81
2023-05-02T16:09:21.600Z,24.68
2023-05-02T16:12:03.958Z,24.88
2023-05-02T16:14:57.234Z,24.96
2023-05-02T16:17:48.008Z,24.94
2023-05-02T16:20:43.404Z,24.77
2023-05-02T16:23:32.616Z,24.72
2023-05-02T16:26:28.155Z,24.41
2023-05-02T16:31:54.720Z,24.57
2023-05-02T16:34:56.871Z,24.49
2023-05-02T16:37:41.741Z,24.47
2023-05-02T16:40:27.368Z,24.67
2023-05-02T16:43:18.633Z,24.92
2023-05-02T16:46:06.224Z,24.93
2023-05-02T16:48:49.700Z,25.04
2023-05-02T16:51:39.686Z,24.75
2023-05-02T16:54:35.761Z,24.23
2023-05-02T16:57:20.945Z,24.26
2023-05-02T17:00:17.739Z,24.28
2023-05-02T17:03:01.649Z,24.09
2023-05-02T17:05:45.917Z,24.16
2023-05-02T17:08:40.865Z,24.15
2023-05-02T17:11:25.637Z,23.93
2023-05-02T17:14:13.828Z,24.28
2023-05-02T17:17:00.285Z,24.33
2023-05-02T17:19:44.596Z,24.18
2023-05-02T17:22:27.123Z,24.16
2023-05-02T17:25:23.660Z,24.16
2023-05-02T17:28:07.741Z,23.79
2023-05-02T17:30:59.904Z,23.74
2023-05-02T17:33:53.677Z,23.55
2023-05-02T17:36:42.622Z,23.44
2023-05-02T17:39:38.570Z,23.31
2023-05-02T17:42:34.063Z,23.28
2023-05-02T17:45:18.350Z,23.21
2023-05-02T17:48:14.744Z,23.07
2023-05-02T17:51:07.210Z,23.08
2023-05-02T17:54:08.593Z,23.06
2023-05-02T17:56:52.861Z,23.14
2023-05-02T18:02:27.872Z,23.14
2023-05-02T18:05:12.572Z,22.69
2023-05-02T18:08:14.873Z,22.69
2023-05-02T18:14:42.667Z,22.18
2023-05-02T18:17:27.188Z,22.08
2023-05-02T18:20:30.703Z,22.03
2023-05-02T18:23:10.120Z,21.73
2023-05-02T18:26:11.921Z,21.69
2023-05-02T18:28:54.996Z,21.58
2023-05-02T18:31:40.510Z,21.62
2023-05-02T18:34:24.661Z,21.36
2023-05-02T18:37:07.961Z,21.16
2023-05-02T18:40:03.784Z,21.09
2023-05-02T18:42:53.729Z,21.08
2023-05-02T18:45:45.656Z,21.03
2023-05-02T18:48:27.618Z,20.86
2023-05-02T18:51:19.553Z,20.75
2023-05-02T18:54:03.880Z,20.55
2023-05-02T18:56:59.989Z,20.61
2023-05-02T18:59:51.666Z,20.37
2023-05-02T19:05:29.445Z,19.86
2023-05-02T19:08:14.852Z,20.15
2023-05-02T19:11:05.681Z,20.03
2023-05-02T19:14:03.716Z,19.94
2023-05-02T19:16:50.102Z,19.77
2023-05-02T19:20:10.963Z,19.93
2023-05-02T19:23:07.199Z,19.59
2023-05-02T19:25:42.635Z,19.80
2023-05-02T19:28:24.888Z,19.61
2023-05-02T19:31:17.714Z,19.95
2023-05-02T19:34:07.077Z,19.16
2023-05-02T19:36:57.043Z,19.58
2023-05-02T19:39:41.187Z,19.49
2023-05-02T19:42:16.870Z,19.35
2023-05-02T19:45:03.831Z,19.37
2023-05-02T19:48:00.178Z,19.17
2023-05-02T19:50:57.712Z,19.23
2023-05-02T19:53:41.610Z,19.33
2023-05-02T19:56:26.162Z,19.32
2023-05-02T20:01:58.956Z,19.29
2023-05-02T20:04:55.886Z,19.49
2023-05-02T20:07:44.581Z,19.38
2023-05-02T20:10:40.966Z,19.52
2023-05-02T20:13:25.679Z,19.44
2023-05-02T20:16:32.142Z,19.28
2023-05-02T20:19:15.150Z,19.11
2023-05-02T20:22:24.308Z,19.09
2023-05-02T20:25:04.155Z,19.25
2023-05-02T20:28:11.597Z,19.22
2023-05-02T20:30:53.891Z,19.39
2023-05-02T20:33:58.621Z,19.26
2023-05-02T20:36:43.373Z,19.23
2023-05-02T20:39:48.879Z,19.25
2023-05-02T20:42:24.873Z,19.34
2023-05-02T20:45:25.695Z,19.05
2023-05-02T20:48:18.377Z,18.97
2023-05-02T20:51:09.011Z,19.01
2023-05-02T20:53:57.274Z,19.09
2023-05-02T20:56:39.435Z,19.00
2023-05-02T20:59:14.096Z,18.94
2023-05-02T21:02:03.875Z,19.27
2023-05-02T21:04:32.903Z,19.18
2023-05-02T21:07:09.690Z,18.87
2023-05-02T21:09:37.217Z,19.04
2023-05-02T21:12:08.712Z,19.14
2023-05-02T21:17:17.621Z,19.04
2023-05-02T21:19:47.794Z,18.90
2023-05-02T21:22:15.398Z,18.96
2023-05-02T21:24:48.553Z,18.82
2023-05-02T21:27:17.027Z,18.93
2023-05-02T21:29:45.200Z,18.94
2023-05-02T21:32:12.810Z,18.84
2023-05-02T21:34:40.848Z,18.92
2023-05-02T21:37:08.471Z,18.62
2023-05-02T21:39:36.120Z,18.82
2023-05-02T21:42:05.829Z,18.94
2023-05-02T21:44:34.134Z,18.91
2023-05-02T21:47:02.852Z,18.84
2023-05-02T21:49:31.190Z,18.82
2023-05-02T21:51:59.982Z,18.60
2023-05-02T21:54:35.568Z,18.70
2023-05-02T21:57:03.753Z,18.65
2023-05-02T21:59:31.186Z,18.64
2023-05-02T22:01:58.819Z,18.67
2023-05-02T22:04:27.387Z,18.68
2023-05-02T22:06:55.739Z,18.81
2023-05-02T22:09:24.207Z,18.58
2023-05-02T22:11:55.804Z,18.54
2023-05-02T22:14:33.291Z,18.48
2023-05-02T22:17:08.900Z,18.48
2023-05-02T22:19:37.572Z,18.55
2023-05-02T22:22:05.735Z,18.59
2023-05-02T22:24:33.830Z,18.60
2023-05-02T22:27:03.721Z,18.58
2023-05-02T22:29:31.675Z,18.60
2023-05-02T22:31:59.739Z,18.45
2023-05-02T22:34:27.445Z,18.52
2023-05-02T22:36:55.803Z,18.55
2023-05-02T22:39:24.374Z,18.75
2023-05-02T22:41:51.790Z,18.61
2023-05-02T22:44:19.850Z,18.68
2023-05-02T22:46:48.228Z,18.86
2023-05-02T22:49:15.971Z,18.79
2023-05-02T22:51:45.216Z,18.73
2023-05-02T22:54:15.228Z,18.62
2023-05-02T22:56:43.063Z,18.81
2023-05-02T22:59:10.782Z,18.83
2023-05-02T23:01:38.537Z,18.72
2023-05-02T23:04:07.509Z,18.47
2023-05-02T23:06:35.624Z,18.78
2023-05-02T23:09:03.763Z,18.86
2023-05-02T23:11:31.387Z,18.63
2023-05-02T23:13:58.873Z,18.52
2023-05-02T23:16:30.891Z,18.54
2023-05-02T23:18:59.295Z,18.50
2023-05-02T23:21:28.079Z,18.30
2023-05-02T23:23:55.907Z,18.42
2023-05-02T23:26:23.861Z,18.43
2023-05-02T23:28:52.133Z,18.41
2023-05-02T23:31:19.726Z,18.51
2023-05-02T23:33:47.555Z,18.33
2023-05-02T23:36:15.509Z,18.38
2023-05-02T23:38:42.900Z,18.36
2023-05-02T23:41:10.239Z,18.28
2023-05-02T23:43:39.453Z,18.42
2023-05-02T23:46:08.937Z,18.35
2023-05-02T23:48:36.743Z,18.29
2023-05-02T23:51:04.717Z,18.32
2023-05-02T23:53:33.062Z,18.33
2023-05-02T23:56:01.354Z,18.46
2023-05-02T23:58:30.131Z,18.36
